Haines City, Florida
Current Conditions -  °F | °C
As of 6:53 AM on Wednesday 28 Jan 2015 (Local Time) from KGIF Reporting Station
Clear Clear  
Wind Chill: 44°   Ceiling: Unl
Heat Index: 47°   Visibility: 10mi
Dew Point: 37°   Wind: 7mph
Humidity: 68%   Direction: 10°N
Pressure: 30.17"   Gusts: NA
Location:  28.11°N, 81.63°W
Report Text: KGIF 281153Z AUTO 01006KT 10SM CLR 08/03 A3017 RMK AO2 SLP214 T00830028 10117 20083 53022
Loading
Personal Weather Stations






























Interactive Weather Map New forecast layout! Learn more

10-Day Weather Forecast

Advertisements
Track Severe Weather on mobile